sensor_id;sensor_type;location;lat;lon;timestamp;P1;durP1;ratioP1;P2;durP2;ratioP2
22441;SDS011;11388;54.456;9.752;2023-11-22T00:01:23;4.07;;;2.30;;
22441;SDS011;11388;54.456;9.752;2023-11-22T00:03:51;3.53;;;2.25;;
22441;SDS011;11388;54.456;9.752;2023-11-22T00:06:16;4.55;;;2.10;;
22441;SDS011;11388;54.456;9.752;2023-11-22T00:08:45;4.05;;;2.60;;
22441;SDS011;11388;54.456;9.752;2023-11-22T00:11:12;3.55;;;2.35;;
22441;SDS011;11388;54.456;9.752;2023-11-22T00:13:38;4.55;;;2.40;;
22441;SDS011;11388;54.456;9.752;2023-11-22T00:16:04;4.05;;;2.17;;
22441;SDS011;11388;54.456;9.752;2023-11-22T00:18:33;3.30;;;2.10;;
22441;SDS011;11388;54.456;9.752;2023-11-22T00:21:02;3.13;;;1.95;;
22441;SDS011;11388;54.456;9.752;2023-11-22T00:23:28;4.25;;;1.90;;
22441;SDS011;11388;54.456;9.752;2023-11-22T00:25:55;3.70;;;2.20;;
22441;SDS011;11388;54.456;9.752;2023-11-22T00:28:22;3.40;;;2.03;;
22441;SDS011;11388;54.456;9.752;2023-11-22T00:30:48;2.95;;;1.80;;
22441;SDS011;11388;54.456;9.752;2023-11-22T00:33:14;3.40;;;2.10;;
22441;SDS011;11388;54.456;9.752;2023-11-22T00:35:40;3.08;;;1.88;;
22441;SDS011;11388;54.456;9.752;2023-11-22T00:38:06;2.95;;;1.90;;
22441;SDS011;11388;54.456;9.752;2023-11-22T00:40:31;2.53;;;1.80;;
22441;SDS011;11388;54.456;9.752;2023-11-22T00:42:57;2.95;;;1.85;;
22441;SDS011;11388;54.456;9.752;2023-11-22T00:45:23;2.67;;;1.90;;
22441;SDS011;11388;54.456;9.752;2023-11-22T00:47:49;6.70;;;2.08;;
22441;SDS011;11388;54.456;9.752;2023-11-22T00:50:18;3.88;;;1.88;;
22441;SDS011;11388;54.456;9.752;2023-11-22T00:52:46;3.92;;;2.13;;
22441;SDS011;11388;54.456;9.752;2023-11-22T00:55:12;2.90;;;1.90;;
22441;SDS011;11388;54.456;9.752;2023-11-22T00:57:38;2.65;;;1.90;;
22441;SDS011;11388;54.456;9.752;2023-11-22T01:00:05;2.85;;;2.05;;
22441;SDS011;11388;54.456;9.752;2023-11-22T01:02:34;2.83;;;1.80;;
22441;SDS011;11388;54.456;9.752;2023-11-22T01:05:01;2.67;;;1.90;;
22441;SDS011;11388;54.456;9.752;2023-11-22T01:07:28;4.53;;;2.05;;
22441;SDS011;11388;54.456;9.752;2023-11-22T01:09:54;3.15;;;2.00;;
22441;SDS011;11388;54.456;9.752;2023-11-22T01:12:20;3.15;;;2.10;;
22441;SDS011;11388;54.456;9.752;2023-11-22T01:14:45;3.35;;;2.15;;
22441;SDS011;11388;54.456;9.752;2023-11-22T01:17:11;3.33;;;2.13;;
22441;SDS011;11388;54.456;9.752;2023-11-22T01:19:37;3.15;;;1.90;;
22441;SDS011;11388;54.456;9.752;2023-11-22T01:22:02;3.50;;;1.90;;
22441;SDS011;11388;54.456;9.752;2023-11-22T01:24:29;4.05;;;2.10;;
22441;SDS011;11388;54.456;9.752;2023-11-22T01:26:55;3.08;;;1.73;;
22441;SDS011;11388;54.456;9.752;2023-11-22T01:29:20;3.55;;;2.00;;
22441;SDS011;11388;54.456;9.752;2023-11-22T01:31:46;3.03;;;1.80;;
22441;SDS011;11388;54.456;9.752;2023-11-22T01:34:12;3.53;;;2.00;;
22441;SDS011;11388;54.456;9.752;2023-11-22T01:36:41;4.25;;;1.90;;
22441;SDS011;11388;54.456;9.752;2023-11-22T01:39:08;3.92;;;1.73;;
22441;SDS011;11388;54.456;9.752;2023-11-22T01:41:35;4.05;;;2.38;;
22441;SDS011;11388;54.456;9.752;2023-11-22T01:47:06;2.67;;;2.00;;
22441;SDS011;11388;54.456;9.752;2023-11-22T01:49:33;2.78;;;1.80;;
22441;SDS011;11388;54.456;9.752;2023-11-22T01:52:00;3.50;;;1.95;;
22441;SDS011;11388;54.456;9.752;2023-11-22T01:54:28;3.40;;;2.10;;
22441;SDS011;11388;54.456;9.752;2023-11-22T01:56:55;3.17;;;1.92;;
22441;SDS011;11388;54.456;9.752;2023-11-22T01:59:21;2.88;;;2.00;;
22441;SDS011;11388;54.456;9.752;2023-11-22T02:01:46;3.22;;;2.17;;
22441;SDS011;11388;54.456;9.752;2023-11-22T02:04:14;3.20;;;2.15;;
22441;SDS011;11388;54.456;9.752;2023-11-22T02:06:40;4.00;;;1.90;;
22441;SDS011;11388;54.456;9.752;2023-11-22T02:09:06;3.08;;;1.80;;
22441;SDS011;11388;54.456;9.752;2023-11-22T02:11:32;2.83;;;1.77;;
22441;SDS011;11388;54.456;9.752;2023-11-22T02:14:00;4.53;;;1.90;;
22441;SDS011;11388;54.456;9.752;2023-11-22T02:16:26;4.95;;;2.05;;
22441;SDS011;11388;54.456;9.752;2023-11-22T02:18:52;2.83;;;1.95;;
22441;SDS011;11388;54.456;9.752;2023-11-22T02:21:18;2.92;;;2.17;;
22441;SDS011;11388;54.456;9.752;2023-11-22T02:23:46;3.80;;;2.00;;
22441;SDS011;11388;54.456;9.752;2023-11-22T02:26:12;5.05;;;2.55;;
22441;SDS011;11388;54.456;9.752;2023-11-22T02:28:37;3.30;;;2.22;;
22441;SDS011;11388;54.456;9.752;2023-11-22T02:31:03;3.90;;;2.50;;
22441;SDS011;11388;54.456;9.752;2023-11-22T02:33:29;3.83;;;2.50;;
22441;SDS011;11388;54.456;9.752;2023-11-22T02:35:55;3.70;;;2.35;;
22441;SDS011;11388;54.456;9.752;2023-11-22T02:38:21;3.72;;;2.30;;
22441;SDS011;11388;54.456;9.752;2023-11-22T02:40:47;2.67;;;2.40;;
22441;SDS011;11388;54.456;9.752;2023-11-22T02:46:36;3.60;;;2.45;;
22441;SDS011;11388;54.456;9.752;2023-11-22T02:49:02;3.78;;;2.42;;
22441;SDS011;11388;54.456;9.752;2023-11-22T02:51:29;4.63;;;2.40;;
22441;SDS011;11388;54.456;9.752;2023-11-22T02:53:55;3.65;;;2.58;;
22441;SDS011;11388;54.456;9.752;2023-11-22T02:56:23;4.20;;;2.42;;
22441;SDS011;11388;54.456;9.752;2023-11-22T02:58:49;3.83;;;2.60;;
22441;SDS011;11388;54.456;9.752;2023-11-22T03:01:14;3.55;;;2.38;;
22441;SDS011;11388;54.456;9.752;2023-11-22T03:03:40;2.85;;;2.40;;
22441;SDS011;11388;54.456;9.752;2023-11-22T03:06:06;4.18;;;2.75;;
22441;SDS011;11388;54.456;9.752;2023-11-22T03:08:31;4.72;;;2.85;;
22441;SDS011;11388;54.456;9.752;2023-11-22T03:10:58;3.88;;;2.88;;
22441;SDS011;11388;54.456;9.752;2023-11-22T03:15:59;4.35;;;2.60;;
22441;SDS011;11388;54.456;9.752;2023-11-22T03:18:28;3.17;;;2.20;;
22441;SDS011;11388;54.456;9.752;2023-11-22T03:20:54;3.00;;;2.05;;
22441;SDS011;11388;54.456;9.752;2023-11-22T03:26:34;3.75;;;2.08;;
22441;SDS011;11388;54.456;9.752;2023-11-22T03:29:00;3.92;;;2.20;;
22441;SDS011;11388;54.456;9.752;2023-11-22T03:31:26;7.22;;;2.20;;
22441;SDS011;11388;54.456;9.752;2023-11-22T03:33:53;2.88;;;2.00;;
22441;SDS011;11388;54.456;9.752;2023-11-22T03:36:19;4.82;;;1.98;;
22441;SDS011;11388;54.456;9.752;2023-11-22T03:38:45;3.80;;;2.33;;
22441;SDS011;11388;54.456;9.752;2023-11-22T03:41:11;4.45;;;2.40;;
22441;SDS011;11388;54.456;9.752;2023-11-22T03:43:37;3.63;;;2.50;;
22441;SDS011;11388;54.456;9.752;2023-11-22T03:46:03;2.83;;;2.30;;
22441;SDS011;11388;54.456;9.752;2023-11-22T03:48:28;2.60;;;2.10;;
22441;SDS011;11388;54.456;9.752;2023-11-22T03:50:54;3.03;;;2.25;;
22441;SDS011;11388;54.456;9.752;2023-11-22T03:53:20;3.45;;;2.25;;
22441;SDS011;11388;54.456;9.752;2023-11-22T03:55:47;4.00;;;2.55;;
22441;SDS011;11388;54.456;9.752;2023-11-22T03:58:13;3.70;;;2.70;;
22441;SDS011;11388;54.456;9.752;2023-11-22T04:00:39;4.15;;;2.60;;
22441;SDS011;11388;54.456;9.752;2023-11-22T04:03:04;5.68;;;2.80;;
22441;SDS011;11388;54.456;9.752;2023-11-22T04:05:30;3.35;;;2.67;;
22441;SDS011;11388;54.456;9.752;2023-11-22T04:07:57;3.70;;;2.70;;
22441;SDS011;11388;54.456;9.752;2023-11-22T04:10:22;5.00;;;2.30;;
22441;SDS011;11388;54.456;9.752;2023-11-22T04:12:48;3.85;;;2.20;;
22441;SDS011;11388;54.456;9.752;2023-11-22T04:15:14;3.50;;;2.30;;
22441;SDS011;11388;54.456;9.752;2023-11-22T04:17:41;3.60;;;2.22;;
22441;SDS011;11388;54.456;9.752;2023-11-22T04:20:07;3.30;;;1.95;;
22441;SDS011;11388;54.456;9.752;2023-11-22T04:22:35;2.72;;;2.00;;
22441;SDS011;11388;54.456;9.752;2023-11-22T04:25:05;3.15;;;2.30;;
22441;SDS011;11388;54.456;9.752;2023-11-22T04:27:31;4.07;;;2.63;;
22441;SDS011;11388;54.456;9.752;2023-11-22T04:29:58;3.63;;;2.53;;
22441;SDS011;11388;54.456;9.752;2023-11-22T04:32:24;3.30;;;2.40;;
22441;SDS011;11388;54.456;9.752;2023-11-22T04:34:49;3.85;;;2.83;;
22441;SDS011;11388;54.456;9.752;2023-11-22T04:37:18;4.18;;;3.10;;
22441;SDS011;11388;54.456;9.752;2023-11-22T04:39:44;5.75;;;2.83;;
22441;SDS011;11388;54.456;9.752;2023-11-22T04:42:09;3.85;;;2.53;;
22441;SDS011;11388;54.456;9.752;2023-11-22T04:44:35;3.95;;;2.80;;
22441;SDS011;11388;54.456;9.752;2023-11-22T04:47:01;4.03;;;2.63;;
22441;SDS011;11388;54.456;9.752;2023-11-22T04:49:26;3.55;;;2.65;;
22441;SDS011;11388;54.456;9.752;2023-11-22T04:51:52;4.88;;;2.92;;
22441;SDS011;11388;54.456;9.752;2023-11-22T04:54:18;3.33;;;2.72;;
22441;SDS011;11388;54.456;9.752;2023-11-22T04:56:44;3.45;;;2.50;;
22441;SDS011;11388;54.456;9.752;2023-11-22T04:59:09;5.80;;;3.22;;
22441;SDS011;11388;54.456;9.752;2023-11-22T05:01:35;5.85;;;3.25;;
22441;SDS011;11388;54.456;9.752;2023-11-22T05:04:01;8.75;;;3.60;;
22441;SDS011;11388;54.456;9.752;2023-11-22T05:06:27;7.28;;;5.53;;
22441;SDS011;11388;54.456;9.752;2023-11-22T05:08:54;4.40;;;3.47;;
22441;SDS011;11388;54.456;9.752;2023-11-22T05:11:20;6.15;;;4.20;;
22441;SDS011;11388;54.456;9.752;2023-11-22T05:13:46;4.28;;;3.30;;
22441;SDS011;11388;54.456;9.752;2023-11-22T05:16:12;4.22;;;3.30;;
22441;SDS011;11388;54.456;9.752;2023-11-22T05:18:38;6.82;;;3.72;;
22441;SDS011;11388;54.456;9.752;2023-11-22T05:21:03;5.18;;;3.25;;
22441;SDS011;11388;54.456;9.752;2023-11-22T05:23:30;4.47;;;3.40;;
22441;SDS011;11388;54.456;9.752;2023-11-22T05:25:57;5.00;;;2.92;;
22441;SDS011;11388;54.456;9.752;2023-11-22T05:28:25;5.18;;;3.75;;
22441;SDS011;11388;54.456;9.752;2023-11-22T05:30:50;6.45;;;3.90;;
22441;SDS011;11388;54.456;9.752;2023-11-22T05:33:16;5.25;;;3.63;;
22441;SDS011;11388;54.456;9.752;2023-11-22T05:35:42;4.60;;;3.70;;
22441;SDS011;11388;54.456;9.752;2023-11-22T05:38:08;4.82;;;3.80;;
22441;SDS011;11388;54.456;9.752;2023-11-22T05:40:35;8.15;;;4.78;;
22441;SDS011;11388;54.456;9.752;2023-11-22T05:43:00;5.53;;;4.80;;
22441;SDS011;11388;54.456;9.752;2023-11-22T05:45:26;5.40;;;4.20;;
22441;SDS011;11388;54.456;9.752;2023-11-22T05:47:52;6.75;;;4.80;;
22441;SDS011;11388;54.456;9.752;2023-11-22T05:50:21;5.68;;;4.75;;
22441;SDS011;11388;54.456;9.752;2023-11-22T05:52:46;7.55;;;5.43;;
22441;SDS011;11388;54.456;9.752;2023-11-22T05:55:12;10.13;;;7.57;;
22441;SDS011;11388;54.456;9.752;2023-11-22T05:57:39;13.32;;;9.40;;
22441;SDS011;11388;54.456;9.752;2023-11-22T06:00:07;10.80;;;8.27;;
22441;SDS011;11388;54.456;9.752;2023-11-22T06:02:36;17.27;;;10.73;;
22441;SDS011;11388;54.456;9.752;2023-11-22T06:05:04;11.07;;;7.45;;
22441;SDS011;11388;54.456;9.752;2023-11-22T06:07:31;10.60;;;7.53;;
22441;SDS011;11388;54.456;9.752;2023-11-22T06:09:57;12.82;;;8.23;;
22441;SDS011;11388;54.456;9.752;2023-11-22T06:12:23;14.43;;;9.43;;
22441;SDS011;11388;54.456;9.752;2023-11-22T06:14:51;7.88;;;4.20;;
22441;SDS011;11388;54.456;9.752;2023-11-22T06:17:17;7.00;;;5.38;;
22441;SDS011;11388;54.456;9.752;2023-11-22T06:19:51;6.95;;;4.75;;
22441;SDS011;11388;54.456;9.752;2023-11-22T06:22:21;6.22;;;4.20;;
22441;SDS011;11388;54.456;9.752;2023-11-22T06:24:52;4.93;;;4.43;;
22441;SDS011;11388;54.456;9.752;2023-11-22T06:27:21;6.75;;;5.55;;
22441;SDS011;11388;54.456;9.752;2023-11-22T06:29:49;5.05;;;4.32;;
22441;SDS011;11388;54.456;9.752;2023-11-22T06:32:17;6.63;;;3.72;;
22441;SDS011;11388;54.456;9.752;2023-11-22T06:34:44;6.38;;;3.63;;
22441;SDS011;11388;54.456;9.752;2023-11-22T06:37:30;4.15;;;3.20;;
22441;SDS011;11388;54.456;9.752;2023-11-22T06:45:47;4.38;;;3.40;;
22441;SDS011;11388;54.456;9.752;2023-11-22T06:48:16;4.10;;;3.20;;
22441;SDS011;11388;54.456;9.752;2023-11-22T06:50:47;4.93;;;3.45;;
22441;SDS011;11388;54.456;9.752;2023-11-22T06:53:15;7.20;;;5.85;;
22441;SDS011;11388;54.456;9.752;2023-11-22T06:55:46;7.85;;;6.07;;
22441;SDS011;11388;54.456;9.752;2023-11-22T07:01:03;5.53;;;4.10;;
22441;SDS011;11388;54.456;9.752;2023-11-22T07:03:31;7.50;;;4.88;;
22441;SDS011;11388;54.456;9.752;2023-11-22T07:06:05;8.00;;;5.45;;
22441;SDS011;11388;54.456;9.752;2023-11-22T07:08:37;7.10;;;5.50;;
22441;SDS011;11388;54.456;9.752;2023-11-22T07:16:18;5.22;;;3.80;;
22441;SDS011;11388;54.456;9.752;2023-11-22T07:18:49;6.82;;;4.03;;
22441;SDS011;11388;54.456;9.752;2023-11-22T07:21:20;5.93;;;4.40;;
22441;SDS011;11388;54.456;9.752;2023-11-22T07:23:49;6.45;;;4.88;;
22441;SDS011;11388;54.456;9.752;2023-11-22T07:26:25;12.52;;;9.20;;
22441;SDS011;11388;54.456;9.752;2023-11-22T07:28:53;7.78;;;5.88;;
22441;SDS011;11388;54.456;9.752;2023-11-22T07:31:19;6.57;;;4.25;;
22441;SDS011;11388;54.456;9.752;2023-11-22T07:33:56;12.18;;;7.68;;
22441;SDS011;11388;54.456;9.752;2023-11-22T07:36:27;10.63;;;8.00;;
22441;SDS011;11388;54.456;9.752;2023-11-22T07:39:28;11.65;;;6.88;;
22441;SDS011;11388;54.456;9.752;2023-11-22T07:42:35;5.30;;;3.85;;
22441;SDS011;11388;54.456;9.752;2023-11-22T07:45:04;6.18;;;4.10;;
22441;SDS011;11388;54.456;9.752;2023-11-22T07:47:35;5.13;;;3.70;;
22441;SDS011;11388;54.456;9.752;2023-11-22T07:50:14;6.25;;;4.57;;
22441;SDS011;11388;54.456;9.752;2023-11-22T07:58:32;8.63;;;5.80;;
22441;SDS011;11388;54.456;9.752;2023-11-22T08:00:58;7.35;;;5.60;;
22441;SDS011;11388;54.456;9.752;2023-11-22T08:03:24;6.53;;;4.80;;
22441;SDS011;11388;54.456;9.752;2023-11-22T08:06:10;5.10;;;3.75;;
22441;SDS011;11388;54.456;9.752;2023-11-22T08:08:56;5.40;;;2.75;;
22441;SDS011;11388;54.456;9.752;2023-11-22T08:11:30;4.30;;;2.83;;
22441;SDS011;11388;54.456;9.752;2023-11-22T08:14:01;5.57;;;3.08;;
22441;SDS011;11388;54.456;9.752;2023-11-22T08:16:28;5.18;;;3.03;;
22441;SDS011;11388;54.456;9.752;2023-11-22T08:19:08;5.22;;;3.90;;
22441;SDS011;11388;54.456;9.752;2023-11-22T08:21:34;6.82;;;5.05;;
22441;SDS011;11388;54.456;9.752;2023-11-22T08:24:01;9.23;;;6.25;;
22441;SDS011;11388;54.456;9.752;2023-11-22T08:57:42;7.20;;;4.50;;
22441;SDS011;11388;54.456;9.752;2023-11-22T09:00:21;4.95;;;3.38;;
22441;SDS011;11388;54.456;9.752;2023-11-22T09:02:56;3.53;;;2.60;;
22441;SDS011;11388;54.456;9.752;2023-11-22T09:05:48;4.72;;;2.92;;
22441;SDS011;11388;54.456;9.752;2023-11-22T09:08:20;3.25;;;2.30;;
22441;SDS011;11388;54.456;9.752;2023-11-22T09:10:53;4.03;;;2.63;;
22441;SDS011;11388;54.456;9.752;2023-11-22T09:13:35;3.65;;;2.17;;
22441;SDS011;11388;54.456;9.752;2023-11-22T09:16:05;3.50;;;2.13;;
22441;SDS011;11388;54.456;9.752;2023-11-22T09:18:39;8.45;;;5.55;;
22441;SDS011;11388;54.456;9.752;2023-11-22T09:24:35;6.88;;;3.92;;
22441;SDS011;11388;54.456;9.752;2023-11-22T09:27:30;3.97;;;2.40;;
22441;SDS011;11388;54.456;9.752;2023-11-22T17:02:20;2.72;;;1.40;;
22441;SDS011;11388;54.456;9.752;2023-11-22T17:04:46;2.55;;;1.40;;
22441;SDS011;11388;54.456;9.752;2023-11-22T17:07:18;2.75;;;1.50;;
22441;SDS011;11388;54.456;9.752;2023-11-22T17:09:50;3.10;;;1.98;;
22441;SDS011;11388;54.456;9.752;2023-11-22T17:12:15;4.80;;;1.60;;
22441;SDS011;11388;54.456;9.752;2023-11-22T17:18:04;3.33;;;1.98;;
22441;SDS011;11388;54.456;9.752;2023-11-22T17:20:31;3.25;;;2.35;;
22441;SDS011;11388;54.456;9.752;2023-11-22T17:26:20;5.32;;;1.75;;
22441;SDS011;11388;54.456;9.752;2023-11-22T17:28:55;2.58;;;1.40;;
22441;SDS011;11388;54.456;9.752;2023-11-22T17:44:35;2.65;;;1.63;;
22441;SDS011;11388;54.456;9.752;2023-11-22T17:49:38;2.88;;;2.03;;
22441;SDS011;11388;54.456;9.752;2023-11-22T17:52:19;4.43;;;1.98;;
22441;SDS011;11388;54.456;9.752;2023-11-22T17:59:02;3.50;;;2.03;;
22441;SDS011;11388;54.456;9.752;2023-11-22T18:42:31;3.43;;;2.10;;
22441;SDS011;11388;54.456;9.752;2023-11-22T18:45:18;2.90;;;1.90;;
22441;SDS011;11388;54.456;9.752;2023-11-22T18:48:13;2.78;;;2.00;;
22441;SDS011;11388;54.456;9.752;2023-11-22T18:58:30;3.53;;;2.35;;
22441;SDS011;11388;54.456;9.752;2023-11-22T19:01:07;10.00;;;6.75;;
22441;SDS011;11388;54.456;9.752;2023-11-22T19:09:45;3.65;;;2.40;;
22441;SDS011;11388;54.456;9.752;2023-11-22T19:12:23;3.75;;;2.72;;
22441;SDS011;11388;54.456;9.752;2023-11-22T19:14:57;3.90;;;2.40;;
22441;SDS011;11388;54.456;9.752;2023-11-22T19:17:26;3.63;;;2.70;;
22441;SDS011;11388;54.456;9.752;2023-11-22T19:19:57;3.95;;;2.60;;
22441;SDS011;11388;54.456;9.752;2023-11-22T19:25:58;4.22;;;2.67;;
